Time;durP1;ratioP1;P1;durP2;ratioP2;P2;SDS_P1;SDS_P2;PMS_P1;PMS_P2;Temp;Humidity;BMP_temperature;BMP_pressure;BME280_temperature;BME280_humidity;BME280_pressure;Samples;Min_cycle;Max_cycle;Signal;HPM_P1;HPM_P2
2023/09/22 00:03:34;;;;;;;0.00;0.00;;;;;;;-145.48;100.00;64539.38;5816999;30;20175;-94
2023/09/22 00:07:35;;;;;;;0.00;0.00;;;;;;;-145.48;100.00;64539.38;5836085;30;20041;-95
2023/09/22 00:11:36;;;;;;;;;;;;;;;-145.48;100.00;64539.38;5840069;30;20147;-94
2023/09/22 00:15:36;;;;;;;0.00;0.00;;;;;;;-145.48;100.00;64539.38;5820986;30;20568;-93
2023/09/22 00:19:36;;;;;;;0.03;0.03;;;;;;;-145.48;100.00;64539.38;5821571;30;20090;-94
2023/09/22 00:23:38;;;;;;;0.00;0.00;;;;;;;-145.48;100.00;64539.38;5831022;30;20885;-93
2023/09/22 00:27:38;;;;;;;0.00;0.00;;;;;;;-145.48;100.00;64539.38;5815385;30;20049;-93
2023/09/22 00:31:40;;;;;;;0.00;0.00;;;;;;;-145.48;100.00;64539.38;5837882;30;20053;-93
2023/09/22 00:35:41;;;;;;;0.00;0.00;;;;;;;-145.48;100.00;64539.38;5840969;30;20100;-93
2023/09/22 00:39:41;;;;;;;0.17;0.17;;;;;;;-145.48;100.00;64539.38;5838004;30;20142;-93
2023/09/22 00:43:41;;;;;;;0.00;0.00;;;;;;;-145.48;100.00;64539.38;5838412;30;20476;-94
2023/09/22 00:47:43;;;;;;;0.00;0.00;;;;;;;-145.48;100.00;64539.38;5844126;30;20420;-94
2023/09/22 00:51:44;;;;;;;0.00;0.00;;;;;;;-145.48;100.00;64539.38;5822047;30;20045;-93
2023/09/22 00:55:47;;;;;;;0.05;0.05;;;;;;;-145.48;100.00;64539.38;5840128;30;20540;-93
2023/09/22 00:59:50;;;;;;;0.00;0.00;;;;;;;-145.48;100.00;64539.38;5816595;30;20057;-94
2023/09/22 01:03:52;;;;;;;0.00;0.00;;;;;;;-145.48;100.00;64539.38;5823532;30;20133;-93
2023/09/22 01:07:53;;;;;;;0.00;0.00;;;;;;;-145.48;100.00;64539.38;5821316;30;20072;-93
2023/09/22 01:11:54;;;;;;;0.00;0.00;;;;;;;-145.48;100.00;64539.38;5827857;30;20053;-94
2023/09/22 01:15:55;;;;;;;0.00;0.00;;;;;;;-145.48;100.00;64539.38;5822930;30;20053;-93
2023/09/22 01:19:56;;;;;;;0.00;0.00;;;;;;;-145.48;100.00;64539.38;5827769;30;20057;-93
2023/09/22 01:24:04;;;;;;;0.00;0.00;;;;;;;-145.48;100.00;64539.38;5845040;30;20052;-93
2023/09/22 01:28:07;;;;;;;0.00;0.00;;;;;;;-145.48;100.00;64539.38;5828873;30;20053;-93
2023/09/22 01:32:09;;;;;;;0.10;0.10;;;;;;;-145.48;100.00;64539.38;5830392;30;20133;-93
2023/09/22 01:36:13;;;;;;;0.00;0.00;;;;;;;-145.48;100.00;64539.38;5845513;30;20433;-93
2023/09/22 01:40:16;;;;;;;0.00;0.00;;;;;;;-145.48;100.00;64539.38;5824040;30;20042;-94
2023/09/22 01:44:16;;;;;;;0.00;0.00;;;;;;;-145.48;100.00;64539.38;5823932;30;20386;-93
2023/09/22 01:48:17;;;;;;;0.00;0.00;;;;;;;-145.48;100.00;64539.38;5821120;30;20060;-92
2023/09/22 01:52:17;;;;;;;0.00;0.00;;;;;;;-145.48;100.00;64539.38;5842693;30;20068;-93
2023/09/22 01:56:18;;;;;;;0.00;0.00;;;;;;;-145.48;100.00;64539.38;5827318;30;20139;-93
2023/09/22 02:00:18;;;;;;;0.00;0.00;;;;;;;-145.48;100.00;64539.38;5819180;30;20053;-93
2023/09/22 02:04:19;;;;;;;0.00;0.00;;;;;;;-145.48;100.00;64539.38;5818383;30;20053;-95
2023/09/22 02:08:20;;;;;;;0.00;0.00;;;;;;;-145.48;100.00;64539.38;5821468;30;20450;-93
2023/09/22 02:12:20;;;;;;;0.00;0.00;;;;;;;-145.48;100.00;64539.38;5803443;30;20049;-95
2023/09/22 02:16:21;;;;;;;0.00;0.00;;;;;;;-145.48;100.00;64539.38;5822459;30;20393;-94
2023/09/22 02:20:22;;;;;;;;;;;;;;;-145.48;100.00;64539.38;5837349;30;20041;-94
2023/09/22 02:24:22;;;;;;;;;;;;;;;-145.48;100.00;64539.38;5844009;30;19982;-94
2023/09/22 02:28:23;;;;;;;0.00;0.00;;;;;;;-145.48;100.00;64539.38;5827435;30;19931;-94
2023/09/22 02:32:23;;;;;;;0.13;0.13;;;;;;;-145.48;100.00;64539.38;5840248;30;20065;-94
2023/09/22 02:36:24;;;;;;;0.00;0.00;;;;;;;-145.48;100.00;64539.38;5818949;30;20123;-93
2023/09/22 02:40:24;;;;;;;0.00;0.00;;;;;;;-145.48;100.00;64539.38;5835796;30;20064;-94
2023/09/22 02:44:24;;;;;;;0.00;0.00;;;;;;;-145.48;100.00;64539.38;5828216;30;20053;-94
2023/09/22 02:48:25;;;;;;;0.00;0.00;;;;;;;-145.48;100.00;64539.38;5827042;30;20057;-94
2023/09/22 02:52:25;;;;;;;0.00;0.00;;;;;;;-145.48;100.00;64539.38;5826250;30;20053;-94
2023/09/22 02:56:27;;;;;;;2.65;0.32;;;;;;;-145.48;100.00;64539.38;5823799;30;20084;-94
2023/09/22 03:00:28;;;;;;;0.00;0.00;;;;;;;-145.48;100.00;64539.38;5826294;30;20057;-94
2023/09/22 03:04:31;;;;;;;0.52;0.52;;;;;;;-145.48;100.00;64539.38;5825110;30;20057;-94
2023/09/22 03:08:31;;;;;;;0.00;0.00;;;;;;;-145.48;100.00;64539.38;5817065;30;20053;-94
2023/09/22 03:12:33;;;;;;;0.00;0.00;;;;;;;-145.48;100.00;64539.38;5844211;30;20136;-94
2023/09/22 03:16:34;;;;;;;0.00;0.00;;;;;;;-145.48;100.00;64539.38;5840964;30;20057;-94
2023/09/22 03:20:35;;;;;;;0.00;0.00;;;;;;;-145.48;100.00;64539.38;5822463;30;20049;-94
2023/09/22 03:24:36;;;;;;;0.00;0.00;;;;;;;-145.48;100.00;64539.38;5826533;30;20501;-93
2023/09/22 03:28:37;;;;;;;0.00;0.00;;;;;;;-145.48;100.00;64539.38;5831818;30;20118;-94
2023/09/22 03:32:39;;;;;;;0.00;0.00;;;;;;;-145.48;100.00;64539.38;5825408;30;20042;-93
2023/09/22 03:36:43;;;;;;;0.00;0.00;;;;;;;-145.48;100.00;64539.38;5829485;30;20049;-93
2023/09/22 03:40:44;;;;;;;0.00;0.00;;;;;;;-145.48;100.00;64539.38;5822700;30;20045;-94
2023/09/22 03:44:44;;;;;;;;;;;;;;;-145.48;100.00;64539.38;5841109;30;20092;-94
2023/09/22 03:48:45;;;;;;;0.00;0.00;;;;;;;-145.48;100.00;64539.38;5832067;30;19931;-95
2023/09/22 03:52:46;;;;;;;;;;;;;;;-145.48;100.00;64539.38;5846835;30;20041;-94
2023/09/22 03:56:46;;;;;;;0.00;0.00;;;;;;;-145.48;100.00;64539.38;5842148;30;19931;-94
2023/09/22 04:00:47;;;;;;;0.00;0.00;;;;;;;-145.48;100.00;64539.38;5824320;30;20072;-94
2023/09/22 04:04:47;;;;;;;;;;;;;;;-145.48;100.00;64539.38;5832152;30;20097;-94
2023/09/22 04:08:48;;;;;;;0.00;0.00;;;;;;;-145.48;100.00;64539.38;5842054;30;19931;-95
2023/09/22 04:12:48;;;;;;;0.00;0.00;;;;;;;-145.48;100.00;64539.38;5826480;30;20196;-95
2023/09/22 04:16:58;;;;;;;0.00;0.00;;;;;;;-145.48;100.00;64539.38;5839530;30;20081;-94
2023/09/22 04:21:04;;;;;;;0.00;0.00;;;;;;;-145.48;100.00;64539.38;5843365;30;20095;-94
2023/09/22 04:25:18;;;;;;;0.00;0.00;;;;;;;-145.48;100.00;64539.38;5845357;30;20041;-94
2023/09/22 04:29:20;;;;;;;0.00;0.00;;;;;;;-145.48;100.00;64539.38;5847544;30;20045;-94
2023/09/22 04:33:22;;;;;;;0.00;0.00;;;;;;;-145.48;100.00;64539.38;5836904;30;20099;-94
2023/09/22 04:37:23;;;;;;;0.00;0.00;;;;;;;-145.48;100.00;64539.38;5835585;30;20278;-94
2023/09/22 04:41:24;;;;;;;0.00;0.00;;;;;;;-145.48;100.00;64539.38;5821403;30;20076;-94
2023/09/22 04:45:25;;;;;;;0.00;0.00;;;;;;;-145.48;100.00;64539.38;5840649;30;20045;-94
2023/09/22 04:49:25;;;;;;;0.00;0.00;;;;;;;-145.48;100.00;64539.38;5846055;30;20178;-94
2023/09/22 04:53:28;;;;;;;0.05;0.05;;;;;;;-145.48;100.00;64539.38;5831297;30;20048;-94
2023/09/22 04:57:29;;;;;;;0.00;0.00;;;;;;;-145.48;100.00;64539.38;5841753;30;20048;-93
2023/09/22 05:01:35;;;;;;;0.00;0.00;;;;;;;-145.48;100.00;64539.38;5844698;30;20142;-94
2023/09/22 05:05:35;;;;;;;0.00;0.00;;;;;;;-145.48;100.00;64539.38;5843901;30;20057;-94
2023/09/22 05:09:37;;;;;;;0.00;0.00;;;;;;;-145.48;100.00;64539.38;5845754;30;20045;-94
2023/09/22 05:13:37;;;;;;;0.00;0.00;;;;;;;-145.48;100.00;64539.38;5821581;30;20056;-94
2023/09/22 05:17:38;;;;;;;0.00;0.00;;;;;;;-145.48;100.00;64539.38;5830639;30;20060;-94
2023/09/22 05:21:44;;;;;;;0.17;0.17;;;;;;;-145.48;100.00;64539.38;5815584;30;20559;-94
2023/09/22 05:25:45;;;;;;;0.00;0.00;;;;;;;-145.48;100.00;64539.38;5845842;30;20057;-94
2023/09/22 05:29:45;;;;;;;0.00;0.00;;;;;;;-145.48;100.00;64539.38;5827406;30;20070;-96
2023/09/22 05:33:46;;;;;;;0.00;0.00;;;;;;;-145.48;100.00;64539.38;5842597;30;20494;-95
2023/09/22 05:37:46;;;;;;;0.00;0.00;;;;;;;-145.48;100.00;64539.38;5841849;30;20202;-94
2023/09/22 05:41:47;;;;;;;0.00;0.00;;;;;;;-145.48;100.00;64539.38;5848818;30;20049;-94
2023/09/22 05:45:57;;;;;;;0.00;0.00;;;;;;;-145.48;100.00;64539.38;5847265;30;20430;-94
2023/09/22 05:49:59;;;;;;;0.00;0.00;;;;;;;-145.48;100.00;64539.38;5842197;30;20049;-95
2023/09/22 05:54:03;;;;;;;0.00;0.00;;;;;;;-145.48;100.00;64539.38;5845333;30;20401;-94
2023/09/22 05:58:04;;;;;;;0.65;0.20;;;;;;;-145.48;100.00;64539.38;5842935;30;20469;-94
2023/09/22 06:02:05;;;;;;;;;;;;;;;-145.48;100.00;64539.38;5833860;30;20136;-94
2023/09/22 06:06:15;;;;;;;0.00;0.00;;;;;;;-145.48;100.00;64539.38;5846957;30;19930;-95
2023/09/22 06:10:16;;;;;;;0.00;0.00;;;;;;;-145.48;100.00;64539.38;5847648;30;20061;-94
2023/09/22 06:14:16;;;;;;;0.00;0.00;;;;;;;-145.48;100.00;64539.38;5836726;30;20049;-94
2023/09/22 06:18:18;;;;;;;0.00;0.00;;;;;;;-145.48;100.00;64539.38;5825375;30;20072;-94
2023/09/22 06:22:19;;;;;;;0.00;0.00;;;;;;;-145.48;100.00;64539.38;5847366;30;20076;-94
2023/09/22 06:26:19;;;;;;;0.00;0.00;;;;;;;-145.48;100.00;64539.38;5838629;30;20045;-95
2023/09/22 06:30:21;;;;;;;0.00;0.00;;;;;;;-145.48;100.00;64539.38;5845830;30;20104;-94
2023/09/22 06:34:21;;;;;;;0.00;0.00;;;;;;;-145.48;100.00;64539.38;5840709;30;20305;-94
2023/09/22 06:38:23;;;;;;;0.00;0.00;;;;;;;-145.48;100.00;64539.38;5840835;30;20053;-94
2023/09/22 06:42:23;;;;;;;0.00;0.00;;;;;;;-145.48;100.00;64539.38;5840645;30;20099;-94
2023/09/22 06:46:23;;;;;;;0.15;0.15;;;;;;;-145.48;100.00;64539.38;5842864;30;20050;-95
2023/09/22 06:50:24;;;;;;;0.00;0.00;;;;;;;-145.48;100.00;64539.38;5825210;30;20057;-94
2023/09/22 06:54:26;;;;;;;0.00;0.00;;;;;;;-145.48;100.00;64539.38;5846004;30;20399;-95
2023/09/22 06:58:26;;;;;;;0.00;0.00;;;;;;;-145.48;100.00;64539.38;5847307;30;20053;-95
2023/09/22 07:02:27;;;;;;;0.00;0.00;;;;;;;-145.48;100.00;64539.38;5844173;30;20468;-95
2023/09/22 07:06:28;;;;;;;0.00;0.00;;;;;;;-145.48;100.00;64539.38;5818049;30;20049;-95
2023/09/22 07:10:30;;;;;;;0.00;0.00;;;;;;;-145.48;100.00;64539.38;5847090;30;20049;-95
2023/09/22 07:14:37;;;;;;;0.00;0.00;;;;;;;-145.48;100.00;64539.38;5847480;30;20095;-95
2023/09/22 07:18:39;;;;;;;0.00;0.00;;;;;;;-145.48;100.00;64539.38;5847037;30;20080;-95
2023/09/22 07:22:42;;;;;;;0.00;0.00;;;;;;;-145.48;100.00;64539.38;5854307;30;20049;-95
2023/09/22 07:26:42;;;;;;;0.00;0.00;;;;;;;-145.48;100.00;64539.38;5843918;30;20090;-95
2023/09/22 07:30:45;;;;;;;;;;;;;;;-145.48;100.00;64539.38;5828932;30;20100;-95
2023/09/22 07:34:50;;;;;;;0.00;0.00;;;;;;;-145.48;100.00;64539.38;5842488;30;20539;-95
2023/09/22 07:38:51;;;;;;;0.00;0.00;;;;;;;-145.48;100.00;64539.38;5832021;30;20055;-95
2023/09/22 07:42:52;;;;;;;0.00;0.00;;;;;;;-145.48;100.00;64539.38;5833639;30;20119;-95
2023/09/22 07:46:56;;;;;;;0.00;0.00;;;;;;;-145.48;100.00;64539.38;5830146;30;20060;-95
2023/09/22 07:50:58;;;;;;;0.00;0.00;;;;;;;-145.48;100.00;64539.38;5817701;30;20057;-95
2023/09/22 07:54:59;;;;;;;0.00;0.00;;;;;;;-145.48;100.00;64539.38;5844423;30;20441;-95
2023/09/22 07:59:02;;;;;;;0.00;0.00;;;;;;;-145.48;100.00;64539.38;5843090;30;20417;-95
2023/09/22 08:03:09;;;;;;;0.00;0.00;;;;;;;-145.48;100.00;64539.38;5831854;30;20056;-95
2023/09/22 08:07:10;;;;;;;0.00;0.00;;;;;;;-145.48;100.00;64539.38;5843204;30;20424;-95
2023/09/22 08:11:11;;;;;;;0.00;0.00;;;;;;;-145.48;100.00;64539.38;5842266;30;20042;-95
2023/09/22 08:15:14;;;;;;;0.00;0.00;;;;;;;-145.48;100.00;64539.38;5847177;30;20056;-94
2023/09/22 08:19:15;;;;;;;0.00;0.00;;;;;;;-145.48;100.00;64539.38;5827565;30;20444;-94
2023/09/22 08:23:15;;;;;;;0.00;0.00;;;;;;;-145.48;100.00;64539.38;5846269;30;20052;-94
2023/09/22 08:27:16;;;;;;;0.00;0.00;;;;;;;-145.48;100.00;64539.38;5818712;30;20053;-93
2023/09/22 08:31:17;;;;;;;0.00;0.00;;;;;;;-145.48;100.00;64539.38;5838825;30;20091;-94
2023/09/22 08:35:18;;;;;;;0.00;0.00;;;;;;;-145.48;100.00;64539.38;5845567;30;20092;-94
2023/09/22 08:39:18;;;;;;;0.00;0.00;;;;;;;-145.48;100.00;64539.38;5828018;30;20096;-94
2023/09/22 08:43:19;;;;;;;0.03;0.03;;;;;;;-145.48;100.00;64539.38;5840325;30;20463;-94
2023/09/22 08:47:21;;;;;;;0.00;0.00;;;;;;;-145.48;100.00;64539.38;5823925;30;20056;-94
2023/09/22 08:51:22;;;;;;;0.00;0.00;;;;;;;-145.48;100.00;64539.38;5841625;30;20053;-94
2023/09/22 08:55:26;;;;;;;0.05;0.05;;;;;;;-145.48;100.00;64539.38;5828088;30;20267;-94
2023/09/22 08:59:27;;;;;;;0.00;0.00;;;;;;;-145.48;100.00;64539.38;5826589;30;20389;-94
2023/09/22 09:03:30;;;;;;;0.00;0.00;;;;;;;-145.48;100.00;64539.38;5840008;30;20092;-93
2023/09/22 09:07:53;;;;;;;0.00;0.00;;;;;;;-145.48;100.00;64539.38;5831589;30;20041;-93
2023/09/22 09:12:09;;;;;;;0.00;0.00;;;;;;;-145.48;100.00;64539.38;5823547;30;20819;-93
2023/09/22 09:16:12;;;;;;;0.00;0.00;;;;;;;-145.48;100.00;64539.38;5795815;30;20094;-93
2023/09/22 09:20:14;;;;;;;0.00;0.00;;;;;;;-145.48;100.00;64539.38;5821213;30;20113;-93
2023/09/22 09:24:23;;;;;;;0.20;0.20;;;;;;;-145.48;100.00;64539.38;5837527;30;20053;-93
2023/09/22 09:28:24;;;;;;;0.00;0.00;;;;;;;-145.48;100.00;64539.38;5817377;30;20061;-93
2023/09/22 09:32:43;;;;;;;0.00;0.00;;;;;;;-145.48;100.00;64539.38;5833344;30;20076;-92
2023/09/22 09:36:44;;;;;;;0.00;0.00;;;;;;;-145.48;100.00;64539.38;5831770;30;20057;-93
2023/09/22 09:40:48;;;;;;;0.00;0.00;;;;;;;-145.48;100.00;64539.38;5832763;30;20068;-93
2023/09/22 09:44:54;;;;;;;0.00;0.00;;;;;;;-145.48;100.00;64539.38;5836757;30;20057;-93
2023/09/22 09:48:58;;;;;;;0.00;0.00;;;;;;;-145.48;100.00;64539.38;5836528;30;20414;-92
2023/09/22 09:53:06;;;;;;;0.00;0.00;;;;;;;-145.48;100.00;64539.38;5812495;30;20176;-92
2023/09/22 09:57:08;;;;;;;0.00;0.00;;;;;;;-145.48;100.00;64539.38;5819112;30;20061;-92
2023/09/22 10:01:13;;;;;;;0.00;0.00;;;;;;;-145.48;100.00;64539.38;5831065;30;20501;-92
2023/09/22 10:05:15;;;;;;;0.00;0.00;;;;;;;-145.48;100.00;64539.38;5821573;30;20487;-92
2023/09/22 10:09:21;;;;;;;0.00;0.00;;;;;;;-145.48;100.00;64539.38;5811260;30;20384;-92
2023/09/22 10:13:23;;;;;;;0.00;0.00;;;;;;;-145.48;100.00;64539.38;5842433;30;20440;-93
2023/09/22 10:17:24;;;;;;;;;;;;;;;-145.48;100.00;64539.38;5838640;30;20045;-92
2023/09/22 10:21:45;;;;;;;0.00;0.00;;;;;;;-145.48;100.00;64539.38;5838192;30;20280;-92
2023/09/22 10:26:18;;;;;;;0.00;0.00;;;;;;;-145.48;100.00;64539.38;5812725;30;20057;-92
2023/09/22 10:30:48;;;;;;;0.00;0.00;;;;;;;-145.48;100.00;64539.38;5835564;30;20119;-92
2023/09/22 10:35:06;;;;;;;0.00;0.00;;;;;;;-145.48;100.00;64539.38;5840521;30;20532;-91
2023/09/22 10:39:07;;;;;;;0.00;0.00;;;;;;;-145.48;100.00;64539.38;5835484;30;20127;-92
2023/09/22 10:43:08;;;;;;;0.00;0.00;;;;;;;-145.48;100.00;64539.38;5844471;30;20058;-91
2023/09/22 10:47:14;;;;;;;0.00;0.00;;;;;;;-145.48;100.00;64539.38;5831793;30;20520;-91
2023/09/22 10:51:18;;;;;;;0.00;0.00;;;;;;;-145.48;100.00;64539.38;5835355;30;20188;-91
2023/09/22 10:55:27;;;;;;;0.00;0.00;;;;;;;-145.48;100.00;64539.38;5831035;30;20389;-92
2023/09/22 10:59:33;;;;;;;0.00;0.00;;;;;;;-145.48;100.00;64539.38;5847415;30;20136;-91
2023/09/22 11:03:37;;;;;;;0.00;0.00;;;;;;;-145.48;100.00;64539.38;5827646;30;20049;-91
2023/09/22 11:07:44;;;;;;;0.00;0.00;;;;;;;-145.48;100.00;64539.38;5842044;30;20064;-91
2023/09/22 11:11:54;;;;;;;0.00;0.00;;;;;;;-145.48;100.00;64539.38;5806329;30;20069;-91
2023/09/22 11:15:59;;;;;;;0.00;0.00;;;;;;;-145.48;100.00;64539.38;5849313;30;20053;-91
2023/09/22 11:20:12;;;;;;;0.00;0.00;;;;;;;-145.48;100.00;64539.38;5814474;30;20058;-91
2023/09/22 11:24:13;;;;;;;0.00;0.00;;;;;;;-145.48;100.00;64539.38;5847017;30;20041;-91
2023/09/22 11:28:16;;;;;;;0.00;0.00;;;;;;;-145.48;100.00;64539.38;5820043;30;20050;-91
2023/09/22 11:32:30;;;;;;;0.00;0.00;;;;;;;-145.48;100.00;64539.38;5845428;30;20057;-91
2023/09/22 11:36:52;;;;;;;0.00;0.00;;;;;;;-145.48;100.00;64539.38;5841181;30;20045;-91
2023/09/22 11:41:11;;;;;;;0.00;0.00;;;;;;;-145.48;100.00;64539.38;5836233;30;20056;-91
2023/09/22 11:45:18;;;;;;;0.00;0.00;;;;;;;-145.48;100.00;64539.38;5836187;30;20060;-91
2023/09/22 11:49:20;;;;;;;0.00;0.00;;;;;;;-145.48;100.00;64539.38;5833358;30;20049;-91
2023/09/22 11:53:29;;;;;;;0.00;0.00;;;;;;;-145.48;100.00;64539.38;5822190;30;20168;-90
2023/09/22 11:57:30;;;;;;;0.00;0.00;;;;;;;-145.48;100.00;64539.38;5824233;30;20041;-90
2023/09/22 12:01:30;;;;;;;0.00;0.00;;;;;;;-145.48;100.00;64539.38;5821409;30;20057;-90
2023/09/22 12:05:30;;;;;;;0.00;0.00;;;;;;;-145.48;100.00;64539.38;5838078;30;20140;-90
2023/09/22 12:09:32;;;;;;;0.00;0.00;;;;;;;-145.48;100.00;64539.38;5837282;30;20069;-91
2023/09/22 12:13:32;;;;;;;0.00;0.00;;;;;;;-145.48;100.00;64539.38;5836103;30;20045;-90
2023/09/22 12:17:33;;;;;;;0.05;0.05;;;;;;;-145.48;100.00;64539.38;5836182;30;20727;-91
2023/09/22 12:21:34;;;;;;;0.00;0.00;;;;;;;-145.48;100.00;64539.38;5840911;30;20045;-91
2023/09/22 12:25:34;;;;;;;0.00;0.00;;;;;;;-145.48;100.00;64539.38;5836143;30;20055;-90
2023/09/22 12:29:36;;;;;;;;;;;;;;;-145.48;100.00;64539.38;5846529;30;20052;-91
2023/09/22 12:33:37;;;;;;;0.00;0.00;;;;;;;-145.48;100.00;64539.38;5836811;30;19934;-91
2023/09/22 12:37:37;;;;;;;0.00;0.00;;;;;;;-145.48;100.00;64539.38;5820779;30;20062;-90
2023/09/22 12:41:37;;;;;;;0.00;0.00;;;;;;;-145.48;100.00;64539.38;5839402;30;20093;-90
2023/09/22 12:45:39;;;;;;;;;;;;;;;-145.48;100.00;64539.38;5835002;30;20060;-90
2023/09/22 12:49:39;;;;;;;0.00;0.00;;;;;;;-145.48;100.00;64539.38;5832890;30;20433;-90
2023/09/22 12:53:40;;;;;;;0.00;0.00;;;;;;;-145.48;100.00;64539.38;5831347;30;20076;-89
2023/09/22 12:57:41;;;;;;;0.00;0.00;;;;;;;-145.48;100.00;64539.38;5815875;30;20045;-89
2023/09/22 13:01:43;;;;;;;0.00;0.00;;;;;;;-145.48;100.00;64539.38;5839746;30;20041;-90
2023/09/22 13:05:44;;;;;;;0.00;0.00;;;;;;;-145.48;100.00;64539.38;5837584;30;20053;-89
2023/09/22 13:09:46;;;;;;;0.00;0.00;;;;;;;-145.48;100.00;64539.38;5839076;30;20405;-90
2023/09/22 13:13:50;;;;;;;0.00;0.00;;;;;;;-145.48;100.00;64539.38;5827809;30;20102;-90
2023/09/22 13:17:51;;;;;;;0.00;0.00;;;;;;;-145.48;100.00;64539.38;5829548;30;20153;-90
2023/09/22 13:21:53;;;;;;;0.00;0.00;;;;;;;-145.48;100.00;64539.38;5837516;30;20324;-90
2023/09/22 13:25:54;;;;;;;0.00;0.00;;;;;;;-145.48;100.00;64539.38;5843500;30;20112;-89
2023/09/22 13:29:54;;;;;;;0.00;0.00;;;;;;;-145.48;100.00;64539.38;5807243;30;20072;-90
2023/09/22 13:33:56;;;;;;;0.30;0.25;;;;;;;-145.48;100.00;64539.38;5837315;30;20561;-90
2023/09/22 13:37:57;;;;;;;0.00;0.00;;;;;;;-145.48;100.00;64539.38;5830320;30;20420;-90
2023/09/22 13:41:58;;;;;;;0.10;0.08;;;;;;;-145.48;100.00;64539.38;5817127;30;20179;-90
2023/09/22 13:45:58;;;;;;;0.00;0.00;;;;;;;-145.48;100.00;64539.38;5820410;30;20057;-90
2023/09/22 13:49:59;;;;;;;;;;;;;;;-145.48;100.00;64539.38;5844078;30;20041;-90
2023/09/22 13:53:59;;;;;;;0.00;0.00;;;;;;;-145.48;100.00;64539.38;5840320;30;19930;-90
2023/09/22 13:58:00;;;;;;;;;;;;;;;-145.48;100.00;64539.38;5839305;30;20053;-90
2023/09/22 14:02:00;;;;;;;;;;;;;;;-145.48;100.00;64539.38;5828593;30;19931;-89
2023/09/22 14:06:01;;;;;;;0.00;0.00;;;;;;;-145.48;100.00;64539.38;5837849;30;19931;-90
2023/09/22 14:10:01;;;;;;;;;;;;;;;-145.48;100.00;64539.38;5840196;30;20042;-87
2023/09/22 14:14:01;;;;;;;0.00;0.00;;;;;;;-145.48;100.00;64539.38;5836325;30;19974;-87
2023/09/22 14:18:02;;;;;;;0.00;0.00;;;;;;;-145.48;100.00;64539.38;5836272;30;20157;-87
2023/09/22 14:22:03;;;;;;;0.00;0.00;;;;;;;-145.48;100.00;64539.38;5836487;30;20045;-87
2023/09/22 14:26:04;;;;;;;0.00;0.00;;;;;;;-145.48;100.00;64539.38;5837446;30;20084;-87
2023/09/22 14:30:07;;;;;;;0.00;0.00;;;;;;;-145.48;100.00;64539.38;5838215;30;20544;-87
2023/09/22 14:34:08;;;;;;;0.00;0.00;;;;;;;-145.48;100.00;64539.38;5822997;30;20053;-87
2023/09/22 14:38:09;;;;;;;0.00;0.00;;;;;;;-145.48;100.00;64539.38;5837615;30;20531;-88
2023/09/22 14:42:09;;;;;;;0.00;0.00;;;;;;;-145.48;100.00;64539.38;5827137;30;20138;-87
2023/09/22 14:46:16;;;;;;;;;;;;;;;-145.48;100.00;64539.38;5838045;30;20052;-87
2023/09/22 14:50:21;;;;;;;0.00;0.00;;;;;;;-145.48;100.00;64539.38;5830351;30;19931;-88
2023/09/22 14:54:21;;;;;;;0.00;0.00;;;;;;;-145.48;100.00;64539.38;5827887;30;20046;-88
2023/09/22 14:58:21;;;;;;;0.00;0.00;;;;;;;-145.48;100.00;64539.38;5839010;30;20052;-87
2023/09/22 15:02:22;;;;;;;;;;;;;;;-145.48;100.00;64539.38;5843031;30;20409;-87
2023/09/22 15:06:22;;;;;;;0.00;0.00;;;;;;;-145.48;100.00;64539.38;5844534;30;19927;-87
2023/09/22 15:10:22;;;;;;;0.00;0.00;;;;;;;-145.48;100.00;64539.38;5842870;30;20045;-87
2023/09/22 15:14:23;;;;;;;0.00;0.00;;;;;;;-145.48;100.00;64539.38;5835649;30;20388;-87
2023/09/22 15:18:24;;;;;;;0.00;0.00;;;;;;;-145.48;100.00;64539.38;5837833;30;20045;-88
2023/09/22 15:22:27;;;;;;;0.00;0.00;;;;;;;-145.48;100.00;64539.38;5819313;30;20603;-86
2023/09/22 15:26:27;;;;;;;0.00;0.00;;;;;;;-145.48;100.00;64539.38;5831882;30;20060;-86
2023/09/22 15:30:28;;;;;;;;;;;;;;;-145.48;100.00;64539.38;5819745;30;20050;-86
2023/09/22 15:34:28;;;;;;;0.00;0.00;;;;;;;-145.48;100.00;64539.38;5838513;30;20306;-86
2023/09/22 15:38:29;;;;;;;0.00;0.00;;;;;;;-145.48;100.00;64539.38;5837617;30;20080;-86
2023/09/22 15:42:31;;;;;;;0.00;0.00;;;;;;;-145.48;100.00;64539.38;5830199;30;20046;-86
2023/09/22 15:46:32;;;;;;;0.00;0.00;;;;;;;-145.48;100.00;64539.38;5840375;30;20064;-86
2023/09/22 15:50:32;;;;;;;0.00;0.00;;;;;;;-145.48;100.00;64539.38;5827378;30;20049;-86
2023/09/22 15:54:32;;;;;;;0.00;0.00;;;;;;;-145.48;100.00;64539.38;5831221;30;20081;-86
2023/09/22 15:58:34;;;;;;;0.00;0.00;;;;;;;-145.48;100.00;64539.38;5838645;30;20470;-86
2023/09/22 16:02:34;;;;;;;0.00;0.00;;;;;;;-145.48;100.00;64539.38;5831545;30;20053;-86
2023/09/22 16:06:34;;;;;;;0.00;0.00;;;;;;;-145.48;100.00;64539.38;5842449;30;20037;-86
2023/09/22 16:10:35;;;;;;;;;;;;;;;-145.48;100.00;64539.38;5842141;30;20056;-86
2023/09/22 16:13:37;;;;;;;0.00;0.00;;;;;;;-145.48;100.00;64539.38;5830229;30;19930;-86
2023/09/22 16:16:39;;;;;;;0.00;0.00;;;;;;;-145.48;100.00;64539.38;5842215;30;20052;-86
2023/09/22 16:19:41;;;;;;;0.00;0.00;;;;;;;-145.48;100.00;64539.38;5833493;30;20058;-85
2023/09/22 16:22:42;;;;;;;0.00;0.00;;;;;;;-145.48;100.00;64539.38;5836666;30;20730;-85
2023/09/22 16:25:47;;;;;;;0.00;0.00;;;;;;;-145.48;100.00;64539.38;5837505;30;20064;-85
2023/09/22 16:28:54;;;;;;;0.00;0.00;;;;;;;-145.48;100.00;64539.38;5834246;30;20045;-86
2023/09/22 16:31:57;;;;;;;0.00;0.00;;;;;;;-145.48;100.00;64539.38;5831738;30;20057;-86
2023/09/22 16:34:58;;;;;;;0.00;0.00;;;;;;;-145.48;100.00;64539.38;5832280;30;20049;-86
2023/09/22 16:38:00;;;;;;;0.00;0.00;;;;;;;-145.48;100.00;64539.38;5837063;30;20061;-86
2023/09/22 16:41:05;;;;;;;0.00;0.00;;;;;;;-145.48;100.00;64539.38;5836402;30;20060;-86
2023/09/22 16:44:07;;;;;;;0.00;0.00;;;;;;;-145.48;100.00;64539.38;5834930;30;20045;-86
2023/09/22 16:47:09;;;;;;;0.00;0.00;;;;;;;-145.48;100.00;64539.38;5833371;30;20045;-86
2023/09/22 16:50:12;;;;;;;0.00;0.00;;;;;;;-145.48;100.00;64539.38;5840629;30;20057;-86
2023/09/22 16:53:17;;;;;;;0.00;0.00;;;;;;;-145.48;100.00;64539.38;5818923;30;20529;-86
2023/09/22 16:56:20;;;;;;;0.00;0.00;;;;;;;-145.48;100.00;64539.38;5826393;30;20060;-86
2023/09/22 16:59:23;;;;;;;0.00;0.00;;;;;;;-145.48;100.00;64539.38;5840589;30;20123;-86
2023/09/22 17:03:26;;;;;;;0.10;0.10;;;;;;;-145.48;100.00;64539.38;5843391;30;20081;-86
2023/09/22 17:07:28;;;;;;;0.00;0.00;;;;;;;-145.48;100.00;64539.38;5836195;30;20048;-86
2023/09/22 17:11:30;;;;;;;0.00;0.00;;;;;;;-145.48;100.00;64539.38;5841220;30;20053;-87
2023/09/22 17:15:32;;;;;;;0.00;0.00;;;;;;;-145.48;100.00;64539.38;5828197;30;20832;-87
2023/09/22 17:19:37;;;;;;;0.00;0.00;;;;;;;-145.48;100.00;64539.38;5833806;30;20134;-87
2023/09/22 17:23:44;;;;;;;0.00;0.00;;;;;;;-145.48;100.00;64539.38;5841529;30;20049;-87
2023/09/22 17:27:51;;;;;;;0.00;0.00;;;;;;;-145.48;100.00;64539.38;5845362;30;20049;-87
2023/09/22 17:32:00;;;;;;;0.00;0.00;;;;;;;-145.48;100.00;64539.38;5836856;30;20088;-87
2023/09/22 17:36:01;;;;;;;0.00;0.00;;;;;;;-145.48;100.00;64539.38;5833593;30;20064;-87
2023/09/22 17:40:03;;;;;;;0.00;0.00;;;;;;;-145.48;100.00;64539.38;5832548;30;20062;-87
2023/09/22 17:44:04;;;;;;;0.00;0.00;;;;;;;-145.48;100.00;64539.38;5835613;30;20049;-87
2023/09/22 17:48:07;;;;;;;0.00;0.00;;;;;;;-145.48;100.00;64539.38;5833708;30;20045;-87
2023/09/22 17:52:10;;;;;;;0.00;0.00;;;;;;;-145.48;100.00;64539.38;5821517;30;20060;-87
2023/09/22 17:56:11;;;;;;;0.00;0.00;;;;;;;-145.48;100.00;64539.38;5835319;30;20493;-87
2023/09/22 18:00:12;;;;;;;;;;;;;;;-145.48;100.00;64539.38;5837311;30;20163;-86
2023/09/22 18:04:13;;;;;;;0.00;0.00;;;;;;;-145.48;100.00;64539.38;5836078;30;20310;-89
2023/09/22 18:08:22;;;;;;;0.00;0.00;;;;;;;-145.48;100.00;64539.38;5814048;30;20645;-89
2023/09/22 18:12:42;;;;;;;0.00;0.00;;;;;;;-145.48;100.00;64539.38;5839018;30;20060;-90
2023/09/22 18:16:52;;;;;;;0.00;0.00;;;;;;;-145.48;100.00;64539.38;5822019;30;20053;-89